Time;durP1;ratioP1;P1;durP2;ratioP2;P2;SDS_P1;SDS_P2;PMS_P1;PMS_P2;Temp;Humidity;BMP_temperature;BMP_pressure;BME280_temperature;BME280_humidity;BME280_pressure;Samples;Min_cycle;Max_cycle;Signal;HPM_P1;HPM_P2
2021/10/03 00:00:32;;;;;;;13.83;12.97;;;18.50;99.90;;;;;;5059083;28;20455;-69
2021/10/03 00:03:00;;;;;;;13.33;12.70;;;18.40;99.90;;;;;;5059491;28;20470;-70
2021/10/03 00:05:28;;;;;;;12.60;12.00;;;18.40;99.90;;;;;;5062296;28;21106;-70
2021/10/03 00:07:59;;;;;;;12.17;11.67;;;18.50;99.90;;;;;;5058801;28;20466;-68
2021/10/03 00:10:28;;;;;;;12.47;11.87;;;18.50;99.90;;;;;;5060114;28;20459;-69
2021/10/03 00:12:55;;;;;;;12.57;12.07;;;18.60;99.90;;;;;;5060645;28;20517;-69
2021/10/03 00:15:23;;;;;;;12.77;12.17;;;18.60;99.90;;;;;;5062750;28;21050;-70
2021/10/03 00:17:50;;;;;;;13.07;12.47;;;18.50;99.90;;;;;;5058164;28;20483;-71
2021/10/03 00:20:18;;;;;;;12.77;12.27;;;18.50;99.90;;;;;;5055273;28;20467;-72
2021/10/03 00:22:47;;;;;;;13.20;12.50;;;18.50;99.90;;;;;;5061529;28;20454;-70
2021/10/03 00:25:14;;;;;;;12.10;11.60;;;18.60;99.90;;;;;;5059527;28;20494;-70
2021/10/03 00:27:41;;;;;;;12.73;12.13;;;18.50;99.90;;;;;;5062095;28;20459;-70
2021/10/03 00:30:10;;;;;;;12.40;11.90;;;18.40;99.90;;;;;;5061544;28;20466;-71
2021/10/03 00:32:37;;;;;;;11.80;11.30;;;18.40;99.90;;;;;;5061135;28;20532;-71
2021/10/03 00:35:05;;;;;;;12.27;11.77;;;18.50;99.90;;;;;;5052727;28;20480;-71
2021/10/03 00:37:31;;;;;;;13.10;12.50;;;18.50;99.90;;;;;;5056115;28;20484;-73
2021/10/03 00:40:00;;;;;;;12.33;11.83;;;18.40;99.90;;;;;;5055356;28;20463;-70
2021/10/03 00:42:27;;;;;;;12.13;11.63;;;18.40;99.90;;;;;;5061471;28;20914;-72
2021/10/03 00:44:54;;;;;;;12.13;11.63;;;18.40;99.90;;;;;;5066135;28;20446;-72
2021/10/03 00:47:23;;;;;;;11.90;11.40;;;18.40;99.90;;;;;;5060269;28;20457;-70
2021/10/03 00:49:49;;;;;;;11.90;11.40;;;18.40;99.90;;;;;;5052782;28;20462;-70
2021/10/03 00:52:16;;;;;;;11.90;11.40;;;18.40;99.90;;;;;;5050869;28;20469;-69
2021/10/03 00:54:43;;;;;;;12.40;11.90;;;18.40;99.90;;;;;;5061233;28;21020;-70
2021/10/03 00:57:12;;;;;;;12.57;11.97;;;18.40;99.90;;;;;;5061493;28;20463;-70
2021/10/03 00:59:39;;;;;;;13.17;12.57;;;18.40;99.90;;;;;;5064630;28;20447;-71
2021/10/03 01:02:06;;;;;;;12.20;11.70;;;18.50;99.90;;;;;;5056298;28;20498;-71
2021/10/03 01:04:33;;;;;;;12.70;12.10;;;18.40;99.90;;;;;;5057538;28;20466;-70
2021/10/03 01:07:00;;;;;;;12.40;11.87;;;18.40;99.90;;;;;;5062018;28;20505;-72
2021/10/03 01:09:27;;;;;;;12.77;12.10;;;18.40;99.90;;;;;;5062233;28;22425;-70
2021/10/03 01:11:54;;;;;;;12.50;11.80;;;18.40;99.90;;;;;;5062962;28;20474;-71
2021/10/03 01:14:23;;;;;;;13.03;12.43;;;18.40;99.90;;;;;;5056979;28;20495;-70
2021/10/03 01:16:51;;;;;;;12.83;12.23;;;18.50;99.90;;;;;;5061524;28;20483;-70
2021/10/03 01:19:19;;;;;;;13.40;12.60;;;18.40;99.90;;;;;;5063604;28;20461;-73
2021/10/03 01:21:49;;;;;;;12.77;12.17;;;18.50;99.90;;;;;;5067068;28;20549;-74
2021/10/03 01:24:16;;;;;;;13.10;12.50;;;18.40;99.90;;;;;;5066076;28;20467;-69
2021/10/03 01:26:44;;;;;;;12.70;12.20;;;18.50;99.90;;;;;;5062760;28;20466;-73
2021/10/03 01:29:12;;;;;;;13.00;12.40;;;18.50;99.90;;;;;;5061279;28;20508;-70
2021/10/03 01:31:39;;;;;;;12.30;11.80;;;18.40;99.90;;;;;;5062197;28;20470;-70
2021/10/03 01:34:06;;;;;;;12.80;12.30;;;18.30;99.90;;;;;;5062872;28;20494;-73
2021/10/03 01:36:33;;;;;;;12.70;12.10;;;18.40;99.90;;;;;;5065844;28;20949;-69
2021/10/03 01:39:02;;;;;;;12.93;12.23;;;18.30;99.90;;;;;;5057744;28;20796;-70
2021/10/03 01:41:30;;;;;;;12.30;11.80;;;18.30;99.90;;;;;;5061439;28;20471;-71
2021/10/03 01:43:57;;;;;;;12.87;12.17;;;18.30;99.90;;;;;;5066480;28;20477;-72
2021/10/03 01:46:24;;;;;;;12.50;11.90;;;18.30;99.90;;;;;;5062792;28;20991;-70
2021/10/03 01:48:51;;;;;;;12.70;12.13;;;18.20;99.90;;;;;;5062262;28;20859;-70
2021/10/03 01:51:18;;;;;;;13.10;12.40;;;18.20;99.90;;;;;;5066097;28;20459;-70
2021/10/03 01:53:47;;;;;;;12.60;12.10;;;18.10;99.90;;;;;;5063178;28;21262;-70
2021/10/03 01:56:16;;;;;;;12.33;11.83;;;18.10;99.90;;;;;;5064035;28;20473;-72
2021/10/03 01:58:46;;;;;;;12.20;11.70;;;18.10;99.90;;;;;;5068297;28;20466;-70
2021/10/03 02:01:16;;;;;;;13.00;12.40;;;18.10;99.90;;;;;;5056485;28;20463;-70
2021/10/03 02:03:43;;;;;;;11.97;11.47;;;18.10;99.90;;;;;;5061342;28;20921;-70
2021/10/03 02:06:10;;;;;;;12.57;12.07;;;18.10;99.90;;;;;;5062517;28;20464;-70
2021/10/03 02:08:37;;;;;;;13.10;12.40;;;18.10;99.90;;;;;;5063326;28;20469;-71
2021/10/03 02:11:04;;;;;;;13.30;12.70;;;18.10;99.90;;;;;;5067452;28;20462;-71
2021/10/03 02:13:33;;;;;;;12.23;11.73;;;18.10;99.90;;;;;;5062784;28;20494;-71
2021/10/03 02:16:01;;;;;;;12.47;11.77;;;18.10;99.90;;;;;;5060628;28;20458;-70
2021/10/03 02:18:36;;;;;;;12.30;11.70;;;18.10;99.90;;;;;;5064390;28;20483;-70
2021/10/03 02:21:05;;;;;;;12.70;12.10;;;18.20;99.90;;;;;;5062617;28;20968;-71
2021/10/03 02:23:33;;;;;;;13.00;12.40;;;18.10;99.90;;;;;;5057359;28;20514;-72
2021/10/03 02:25:59;;;;;;;12.80;12.10;;;18.10;99.90;;;;;;5069393;28;20447;-70
2021/10/03 02:28:28;;;;;;;12.67;12.13;;;18.10;99.90;;;;;;5063767;28;20474;-71
2021/10/03 02:30:59;;;;;;;12.20;11.70;;;18.20;99.90;;;;;;5063270;28;20461;-71
2021/10/03 02:33:27;;;;;;;12.73;12.13;;;18.20;99.90;;;;;;5063593;28;20482;-70
2021/10/03 02:35:55;;;;;;;13.37;12.57;;;18.20;99.90;;;;;;5062653;28;20459;-72
2021/10/03 02:38:24;;;;;;;12.60;12.00;;;18.20;99.90;;;;;;5065127;28;20455;-71
2021/10/03 02:40:54;;;;;;;13.30;12.60;;;18.20;99.90;;;;;;5063226;28;20466;-71
2021/10/03 02:43:22;;;;;;;13.30;12.70;;;18.20;99.90;;;;;;5063751;28;20451;-72
2021/10/03 02:45:51;;;;;;;12.60;12.00;;;18.20;99.90;;;;;;5061037;28;20493;-73
2021/10/03 02:48:21;;;;;;;13.30;12.70;;;18.20;99.90;;;;;;5051839;28;20463;-72
2021/10/03 02:50:49;;;;;;;13.10;12.50;;;18.20;99.90;;;;;;5059447;28;20468;-71
2021/10/03 02:53:17;;;;;;;14.63;13.60;;;18.20;99.90;;;;;;5068840;28;20455;-70
2021/10/03 02:55:44;;;;;;;14.43;13.63;;;18.00;99.90;;;;;;5060545;28;20464;-69
2021/10/03 02:58:11;;;;;;;14.37;13.67;;;17.90;99.90;;;;;;5061267;28;20463;-69
2021/10/03 03:00:40;;;;;;;13.77;12.97;;;17.80;99.90;;;;;;5064537;28;20920;-70
2021/10/03 03:03:07;;;;;;;14.33;13.43;;;17.80;99.90;;;;;;5062314;28;20517;-71
2021/10/03 03:05:36;;;;;;;14.00;13.20;;;17.70;99.90;;;;;;5063116;28;20443;-70
2021/10/03 03:08:04;;;;;;;13.73;13.13;;;17.80;99.90;;;;;;5061615;28;20452;-70
2021/10/03 03:10:31;;;;;;;14.17;13.47;;;17.80;99.90;;;;;;5060581;28;20471;-70
2021/10/03 03:12:59;;;;;;;14.70;14.00;;;17.80;99.90;;;;;;5062120;28;20462;-73
2021/10/03 03:15:26;;;;;;;14.70;13.90;;;17.90;99.90;;;;;;5058459;28;20492;-70
2021/10/03 03:17:53;;;;;;;15.00;14.10;;;18.00;99.90;;;;;;5064303;28;20498;-70
2021/10/03 03:20:20;;;;;;;14.20;13.47;;;18.00;99.90;;;;;;5063446;28;20451;-72
2021/10/03 03:22:49;;;;;;;14.90;13.90;;;18.10;99.90;;;;;;5066031;28;20553;-72
2021/10/03 03:25:16;;;;;;;15.23;14.33;;;18.10;99.90;;;;;;5061330;28;20509;-71
2021/10/03 03:27:44;;;;;;;15.33;14.53;;;18.20;99.90;;;;;;5060308;28;20459;-72
2021/10/03 03:30:13;;;;;;;14.87;14.07;;;18.20;99.90;;;;;;5059856;28;20870;-72
2021/10/03 03:32:40;;;;;;;14.90;14.10;;;18.20;99.90;;;;;;5061284;28;20949;-70
2021/10/03 03:35:10;;;;;;;14.63;13.83;;;18.20;99.90;;;;;;5064373;28;20491;-70
2021/10/03 03:37:38;;;;;;;14.50;13.60;;;18.30;99.90;;;;;;5056562;28;21039;-70
2021/10/03 03:40:09;;;;;;;14.80;13.93;;;18.30;99.90;;;;;;5061498;28;21629;-71
2021/10/03 03:42:36;;;;;;;15.20;14.20;;;18.30;99.90;;;;;;5059584;28;20819;-71
2021/10/03 03:45:03;;;;;;;15.10;14.10;;;18.30;99.90;;;;;;5060740;28;20541;-71
2021/10/03 03:47:30;;;;;;;15.30;14.50;;;18.40;99.90;;;;;;5061284;28;20476;-71
2021/10/03 03:49:58;;;;;;;14.63;13.73;;;18.40;99.90;;;;;;5058227;28;20469;-73
2021/10/03 03:52:26;;;;;;;14.80;13.80;;;18.40;99.90;;;;;;5060111;28;20493;-71
2021/10/03 03:54:53;;;;;;;14.23;13.43;;;18.40;99.90;;;;;;5057946;28;20578;-72
2021/10/03 03:57:22;;;;;;;15.80;14.70;;;18.40;99.90;;;;;;5059078;28;20452;-71
2021/10/03 03:59:49;;;;;;;14.87;13.87;;;18.40;99.90;;;;;;5063921;28;20458;-70
2021/10/03 04:02:16;;;;;;;15.20;14.27;;;18.50;99.90;;;;;;5059289;28;20448;-72
2021/10/03 04:04:44;;;;;;;15.20;14.30;;;18.50;99.90;;;;;;5061665;28;20459;-73
2021/10/03 04:07:11;;;;;;;15.80;14.67;;;18.50;99.90;;;;;;5053656;28;20455;-71
2021/10/03 04:09:38;;;;;;;15.57;14.57;;;18.50;99.90;;;;;;5061533;28;20979;-71
2021/10/03 04:12:05;;;;;;;14.83;13.93;;;18.50;99.90;;;;;;5059238;28;20484;-70
2021/10/03 04:14:34;;;;;;;14.57;13.73;;;18.60;99.90;;;;;;5063428;28;20486;-71
2021/10/03 04:17:01;;;;;;;16.17;15.13;;;18.60;99.90;;;;;;5061218;28;20527;-73
2021/10/03 04:19:29;;;;;;;14.03;13.13;;;18.60;99.90;;;;;;5061329;28;20811;-71
2021/10/03 04:21:56;;;;;;;15.80;14.90;;;18.70;99.90;;;;;;5060364;28;20478;-71
2021/10/03 04:24:23;;;;;;;15.30;14.30;;;18.70;99.90;;;;;;5057076;28;20465;-72
2021/10/03 04:26:51;;;;;;;15.73;14.73;;;18.80;99.90;;;;;;5051401;28;20562;-74
2021/10/03 04:29:18;;;;;;;15.20;14.20;;;18.90;99.90;;;;;;5063025;28;21013;-74
2021/10/03 04:31:46;;;;;;;15.67;14.37;;;18.90;99.90;;;;;;5064583;28;20458;-71
2021/10/03 04:34:12;;;;;;;15.53;14.63;;;19.00;99.90;;;;;;5053892;28;20483;-70
2021/10/03 04:36:40;;;;;;;15.17;14.37;;;19.00;99.90;;;;;;5057639;28;20473;-74
2021/10/03 04:39:07;;;;;;;16.50;14.90;;;19.10;99.90;;;;;;5062618;28;20459;-72
2021/10/03 04:41:34;;;;;;;15.70;14.70;;;19.10;99.90;;;;;;5063004;28;20456;-71
2021/10/03 04:44:01;;;;;;;15.93;14.93;;;19.20;99.90;;;;;;5058607;28;20467;-72
2021/10/03 04:46:28;;;;;;;15.40;14.47;;;19.20;99.90;;;;;;5054015;28;20872;-72
2021/10/03 04:48:57;;;;;;;14.90;13.80;;;19.30;99.90;;;;;;5062345;28;20980;-71
2021/10/03 04:51:24;;;;;;;15.20;14.40;;;19.30;99.90;;;;;;5056054;28;20551;-72
2021/10/03 04:53:51;;;;;;;15.90;14.70;;;19.30;99.90;;;;;;5060562;28;20463;-71
2021/10/03 04:56:18;;;;;;;17.27;15.40;;;19.40;99.90;;;;;;5061031;28;20462;-72
2021/10/03 04:58:45;;;;;;;14.90;13.90;;;19.40;99.90;;;;;;5064297;28;20553;-71
2021/10/03 05:01:14;;;;;;;15.37;14.47;;;19.40;99.90;;;;;;5058974;28;20471;-70
2021/10/03 05:03:41;;;;;;;14.67;13.60;;;19.40;99.90;;;;;;5059268;28;20459;-72
2021/10/03 05:06:10;;;;;;;15.80;14.77;;;19.50;99.90;;;;;;5061769;28;20462;-71
2021/10/03 05:08:37;;;;;;;15.30;14.10;;;19.50;99.90;;;;;;5055232;28;20469;-71
2021/10/03 05:11:04;;;;;;;15.37;14.07;;;19.50;99.90;;;;;;5064353;28;20572;-71
2021/10/03 05:13:32;;;;;;;15.33;14.37;;;19.50;99.90;;;;;;5065126;28;20470;-70
2021/10/03 05:16:00;;;;;;;16.43;15.20;;;19.50;99.90;;;;;;5061854;28;20482;-71
2021/10/03 05:18:27;;;;;;;15.50;14.50;;;19.50;99.90;;;;;;5065152;28;20540;-72
2021/10/03 05:20:54;;;;;;;16.07;14.73;;;19.60;99.90;;;;;;5060781;28;20459;-70
2021/10/03 05:23:23;;;;;;;16.10;14.80;;;19.60;99.90;;;;;;5062341;28;20458;-70
2021/10/03 05:25:50;;;;;;;15.60;14.70;;;19.60;99.90;;;;;;5064460;28;20461;-70
2021/10/03 05:28:17;;;;;;;15.37;14.40;;;19.60;99.90;;;;;;5067185;28;20462;-71
2021/10/03 05:30:44;;;;;;;15.33;14.23;;;19.50;99.90;;;;;;5067005;28;20824;-71
2021/10/03 05:33:11;;;;;;;15.30;14.40;;;19.60;99.90;;;;;;5073753;28;20467;-73
2021/10/03 05:35:38;;;;;;;15.70;14.07;;;19.60;99.90;;;;;;5069277;28;20498;-72
2021/10/03 05:38:07;;;;;;;15.23;14.23;;;19.60;99.90;;;;;;5063354;28;20845;-70
2021/10/03 05:40:35;;;;;;;15.27;14.37;;;19.60;99.90;;;;;;5057535;28;20496;-73
2021/10/03 05:43:04;;;;;;;14.90;14.10;;;19.60;99.90;;;;;;5056915;28;20465;-74
2021/10/03 05:45:31;;;;;;;15.00;14.20;;;19.70;99.90;;;;;;5059889;28;20471;-70
2021/10/03 05:47:58;;;;;;;14.97;14.17;;;19.70;99.90;;;;;;5065286;28;20462;-71
2021/10/03 05:50:26;;;;;;;15.50;14.40;;;19.70;99.90;;;;;;5062615;28;20457;-70
2021/10/03 05:52:52;;;;;;;16.27;15.27;;;19.70;99.90;;;;;;5062000;28;20466;-70
2021/10/03 05:55:19;;;;;;;15.93;14.93;;;19.70;99.90;;;;;;5061910;28;20490;-69
2021/10/03 05:57:48;;;;;;;15.33;14.43;;;19.60;99.90;;;;;;5057912;28;20451;-71
2021/10/03 06:00:16;;;;;;;15.23;14.30;;;19.60;99.90;;;;;;5058897;28;20455;-72
2021/10/03 06:02:43;;;;;;;15.13;14.23;;;19.60;99.90;;;;;;5064132;28;20474;-72
2021/10/03 06:05:11;;;;;;;15.80;14.77;;;19.60;99.90;;;;;;5059696;28;20455;-70
2021/10/03 06:07:38;;;;;;;16.17;14.97;;;19.50;99.90;;;;;;5059258;28;20966;-73
2021/10/03 06:10:09;;;;;;;16.30;15.10;;;19.60;99.90;;;;;;5058742;28;21159;-72
2021/10/03 06:12:36;;;;;;;15.77;14.60;;;19.50;99.90;;;;;;5059422;28;20477;-71
2021/10/03 06:15:06;;;;;;;15.37;14.03;;;19.60;99.90;;;;;;5061912;28;20929;-70
2021/10/03 06:17:35;;;;;;;16.30;15.03;;;19.70;99.90;;;;;;5058934;28;20541;-69
2021/10/03 06:20:01;;;;;;;16.13;14.90;;;19.60;99.90;;;;;;5065189;28;20538;-69
2021/10/03 06:22:28;;;;;;;15.80;14.80;;;19.60;99.90;;;;;;5055299;28;20466;-73
2021/10/03 06:24:57;;;;;;;16.43;15.30;;;19.70;99.90;;;;;;5067217;28;20462;-70
2021/10/03 06:27:25;;;;;;;16.00;15.10;;;19.60;99.90;;;;;;5063345;28;20541;-71
2021/10/03 06:29:53;;;;;;;16.90;15.60;;;19.70;99.90;;;;;;5056247;28;21213;-70
2021/10/03 06:32:21;;;;;;;16.00;15.00;;;19.60;99.90;;;;;;5060863;28;20471;-72
2021/10/03 06:34:49;;;;;;;17.10;16.10;;;19.60;99.90;;;;;;5064491;28;20579;-70
2021/10/03 06:37:16;;;;;;;18.07;16.87;;;19.60;99.90;;;;;;5070163;28;20451;-72
2021/10/03 06:39:43;;;;;;;17.77;16.67;;;19.40;99.90;;;;;;5062503;28;20451;-69
2021/10/03 06:42:11;;;;;;;19.23;17.50;;;19.30;99.90;;;;;;5061835;28;20803;-70
2021/10/03 06:44:38;;;;;;;19.53;18.20;;;19.20;99.90;;;;;;5062866;28;20463;-69
2021/10/03 06:47:08;;;;;;;20.80;19.20;;;19.10;99.90;;;;;;5061232;28;20459;-69
2021/10/03 06:49:37;;;;;;;20.70;19.10;;;19.00;99.90;;;;;;5063149;28;20459;-70
2021/10/03 06:52:05;;;;;;;20.93;19.53;;;18.90;99.90;;;;;;5060587;28;20455;-70
2021/10/03 06:54:32;;;;;;;22.30;20.70;;;18.80;99.90;;;;;;5059394;28;21475;-71
2021/10/03 06:57:00;;;;;;;22.20;20.40;;;18.70;99.90;;;;;;5060866;28;20471;-71
2021/10/03 06:59:27;;;;;;;22.37;20.63;;;18.60;99.90;;;;;;5064428;28;21040;-69
2021/10/03 07:01:54;;;;;;;21.90;20.30;;;18.60;99.90;;;;;;5054529;28;20546;-71
2021/10/03 07:04:21;;;;;;;21.83;20.13;;;18.50;99.90;;;;;;5065138;28;20455;-69
2021/10/03 07:06:49;;;;;;;21.90;20.40;;;18.50;99.90;;;;;;5055555;28;20904;-73
2021/10/03 07:09:17;;;;;;;21.93;20.10;;;18.50;99.90;;;;;;5057520;28;20451;-70
2021/10/03 07:11:45;;;;;;;20.87;19.33;;;18.50;99.90;;;;;;5056009;28;20483;-72
2021/10/03 07:14:11;;;;;;;22.30;19.50;;;18.50;99.90;;;;;;5060301;28;20460;-70
2021/10/03 07:16:39;;;;;;;20.50;19.00;;;18.60;99.90;;;;;;5063707;28;20494;-73
2021/10/03 07:19:06;;;;;;;22.63;20.80;;;18.70;99.90;;;;;;5060339;28;20466;-71
2021/10/03 07:21:33;;;;;;;22.47;20.93;;;18.70;99.90;;;;;;5060940;28;21024;-70
2021/10/03 07:24:02;;;;;;;23.70;21.80;;;18.60;99.90;;;;;;5062169;28;20791;-70
2021/10/03 07:26:29;;;;;;;23.70;22.03;;;18.50;99.90;;;;;;5059888;28;20447;-70
2021/10/03 07:28:56;;;;;;;22.20;20.80;;;18.50;99.90;;;;;;5059287;28;20462;-70
2021/10/03 07:31:24;;;;;;;22.33;20.83;;;18.50;99.90;;;;;;5054826;28;20456;-69
2021/10/03 07:33:52;;;;;;;22.00;20.50;;;18.50;99.90;;;;;;5062595;28;20447;-69
2021/10/03 07:36:20;;;;;;;21.60;19.83;;;18.50;99.90;;;;;;5056691;28;20487;-70
2021/10/03 07:38:49;;;;;;;19.83;18.43;;;18.50;99.90;;;;;;5059271;28;20470;-72
2021/10/03 07:41:17;;;;;;;18.87;17.50;;;18.50;99.90;;;;;;5060306;28;21009;-70
2021/10/03 07:43:46;;;;;;;19.17;17.63;;;18.60;99.90;;;;;;5054321;28;20460;-71
2021/10/03 07:46:15;;;;;;;17.77;16.73;;;18.70;99.90;;;;;;5061312;28;20540;-70
2021/10/03 07:48:43;;;;;;;18.90;17.60;;;18.70;99.90;;;;;;5065089;28;20869;-71
2021/10/03 07:51:10;;;;;;;19.10;17.90;;;18.80;99.90;;;;;;5058728;28;20492;-72
2021/10/03 07:53:37;;;;;;;16.70;15.80;;;18.90;99.90;;;;;;5058030;28;20443;-71
2021/10/03 07:56:05;;;;;;;18.87;17.23;;;19.00;99.90;;;;;;5060341;28;20480;-71
2021/10/03 07:58:34;;;;;;;21.03;16.97;;;19.10;99.90;;;;;;5058662;28;20975;-70
2021/10/03 08:01:01;;;;;;;17.93;16.83;;;19.20;99.90;;;;;;5058647;28;20850;-71
2021/10/03 08:03:28;;;;;;;17.90;16.70;;;19.20;99.90;;;;;;5059594;28;20458;-70
2021/10/03 08:05:55;;;;;;;17.83;16.57;;;19.30;99.90;;;;;;5063254;28;20482;-71
2021/10/03 08:08:23;;;;;;;17.47;16.27;;;19.30;99.90;;;;;;5055287;28;20816;-73
2021/10/03 08:10:51;;;;;;;16.60;15.70;;;19.40;99.90;;;;;;5055100;28;20487;-73
2021/10/03 08:13:19;;;;;;;17.03;16.03;;;19.50;99.90;;;;;;5063085;28;20833;-70
2021/10/03 08:15:48;;;;;;;16.67;15.67;;;19.50;99.90;;;;;;5058544;28;20472;-70
2021/10/03 08:18:16;;;;;;;16.60;15.60;;;19.60;99.90;;;;;;5058112;28;20471;-70
2021/10/03 08:20:47;;;;;;;16.40;15.40;;;19.60;99.90;;;;;;5056440;28;20459;-71
2021/10/03 08:23:14;;;;;;;16.53;15.33;;;19.60;99.90;;;;;;5058852;28;20808;-72
2021/10/03 08:25:41;;;;;;;17.10;16.00;;;19.60;99.90;;;;;;5059440;28;20463;-71
2021/10/03 08:28:08;;;;;;;18.13;16.53;;;19.50;99.90;;;;;;5064434;28;20464;-70
2021/10/03 08:30:35;;;;;;;17.60;16.20;;;19.50;99.90;;;;;;5063339;28;20794;-70
2021/10/03 08:33:04;;;;;;;18.73;17.20;;;19.40;99.90;;;;;;5060358;28;20461;-70
2021/10/03 08:35:32;;;;;;;18.20;16.90;;;19.40;99.90;;;;;;5058922;28;21004;-69
2021/10/03 08:38:00;;;;;;;18.83;17.60;;;19.30;99.90;;;;;;5061974;28;20848;-69
2021/10/03 08:40:27;;;;;;;19.93;18.63;;;19.30;99.90;;;;;;5058711;28;20670;-71
2021/10/03 08:42:55;;;;;;;21.60;20.00;;;19.10;99.90;;;;;;5063684;28;20458;-70
2021/10/03 08:45:22;;;;;;;21.80;20.20;;;18.90;99.90;;;;;;5059003;28;20491;-69
2021/10/03 08:47:51;;;;;;;21.60;19.63;;;18.80;99.90;;;;;;5054889;28;20460;-68
2021/10/03 08:50:21;;;;;;;21.70;20.30;;;18.70;99.90;;;;;;5058166;28;20473;-68
2021/10/03 08:52:48;;;;;;;20.67;19.03;;;18.70;99.90;;;;;;5058567;28;20451;-69
2021/10/03 08:55:17;;;;;;;20.23;18.70;;;18.60;99.90;;;;;;5062454;28;20912;-69
2021/10/03 08:57:46;;;;;;;20.17;18.77;;;18.70;99.90;;;;;;5062477;28;20473;-70
2021/10/03 09:00:16;;;;;;;19.60;17.97;;;18.70;99.90;;;;;;5054391;28;20451;-70
2021/10/03 09:03:00;;;;;;;18.10;16.80;;;18.80;99.90;;;;;;5055072;28;20469;-70
2021/10/03 09:05:31;;;;;;;19.27;17.77;;;18.90;99.90;;;;;;5056252;28;20467;-70
2021/10/03 09:08:05;;;;;;;18.20;17.10;;;19.00;99.90;;;;;;5057198;28;20824;-70
2021/10/03 09:10:46;;;;;;;17.13;16.13;;;19.00;99.90;;;;;;5055024;28;20464;-69
2021/10/03 09:13:14;;;;;;;17.37;16.07;;;19.10;99.90;;;;;;5053763;28;20473;-70
2021/10/03 09:15:42;;;;;;;17.00;15.90;;;19.10;99.90;;;;;;5059932;28;21001;-71
2021/10/03 09:18:09;;;;;;;17.50;16.30;;;19.30;99.90;;;;;;5059908;28;20479;-70
2021/10/03 09:20:38;;;;;;;17.90;16.60;;;19.40;99.90;;;;;;5058813;28;20466;-70
2021/10/03 09:23:09;;;;;;;17.40;16.40;;;19.50;99.90;;;;;;5059491;28;21041;-70
2021/10/03 09:25:43;;;;;;;18.17;16.70;;;19.60;99.90;;;;;;5056196;28;20517;-71
2021/10/03 09:28:12;;;;;;;17.10;16.00;;;19.70;99.90;;;;;;5065377;28;20451;-72
2021/10/03 09:30:58;;;;;;;17.80;16.30;;;19.70;99.90;;;;;;5060031;28;20457;-70
2021/10/03 09:33:25;;;;;;;16.40;15.30;;;19.70;99.90;;;;;;5058739;28;20451;-69
2021/10/03 09:35:58;;;;;;;18.30;17.20;;;19.80;99.90;;;;;;5059191;28;20493;-72
2021/10/03 09:38:26;;;;;;;17.93;16.47;;;19.80;99.90;;;;;;5052522;28;20464;-69
2021/10/03 09:41:04;;;;;;;17.77;16.37;;;19.90;99.90;;;;;;5057449;28;20463;-69
2021/10/03 09:43:44;;;;;;;17.47;16.43;;;20.00;99.90;;;;;;5064623;28;20482;-69
2021/10/03 09:46:28;;;;;;;17.30;16.10;;;20.00;99.90;;;;;;5060973;28;20461;-69
2021/10/03 09:48:55;;;;;;;17.77;16.43;;;20.10;99.90;;;;;;5057923;28;20471;-69
2021/10/03 09:51:25;;;;;;;18.37;16.57;;;20.30;99.90;;;;;;5062031;28;20459;-73
2021/10/03 09:53:52;;;;;;;17.83;16.70;;;20.30;99.90;;;;;;5060618;28;20460;-69
2021/10/03 09:56:20;;;;;;;17.73;16.63;;;20.40;99.90;;;;;;5059017;28;20491;-69
2021/10/03 09:58:48;;;;;;;17.43;16.43;;;20.40;99.90;;;;;;5060679;28;20459;-69
2021/10/03 10:01:17;;;;;;;18.03;16.83;;;20.50;99.90;;;;;;5060216;28;20466;-71
2021/10/03 10:03:44;;;;;;;17.47;16.57;;;20.50;99.90;;;;;;5063714;28;20626;-72
2021/10/03 10:06:12;;;;;;;18.90;17.20;;;20.40;99.90;;;;;;5064203;28;20454;-69
2021/10/03 10:08:41;;;;;;;19.10;17.90;;;20.20;99.90;;;;;;5058110;28;20548;-69
2021/10/03 10:11:11;;;;;;;21.47;20.10;;;20.00;99.90;;;;;;5056928;28;20590;-70
2021/10/03 10:13:40;;;;;;;21.27;19.83;;;20.00;99.90;;;;;;5066353;28;20463;-70
2021/10/03 10:16:33;;;;;;;21.63;19.93;;;19.80;99.90;;;;;;5060491;28;20487;-69
2021/10/03 10:19:43;;;;;;;21.93;20.23;;;19.80;99.90;;;;;;5063802;28;20458;-70
2021/10/03 10:22:37;;;;;;;21.67;20.07;;;19.60;99.90;;;;;;5059897;28;20463;-71
2021/10/03 10:25:20;;;;;;;22.50;21.10;;;19.50;99.90;;;;;;5059141;28;20460;-68
2021/10/03 10:27:59;;;;;;;21.67;20.23;;;19.50;99.90;;;;;;5062252;28;20461;-69
2021/10/03 10:30:26;;;;;;;21.73;20.07;;;19.40;99.90;;;;;;5062647;28;20454;-69
2021/10/03 10:33:17;;;;;;;21.17;19.67;;;19.40;99.90;;;;;;5060950;28;20832;-72
2021/10/03 10:35:45;;;;;;;18.93;17.70;;;19.40;99.90;;;;;;5053835;28;20588;-69
2021/10/03 10:38:18;;;;;;;18.40;17.20;;;19.40;99.90;;;;;;5058062;28;20471;-69
2021/10/03 10:40:46;;;;;;;16.80;15.47;;;19.50;99.90;;;;;;5061898;28;20496;-69
2021/10/03 10:43:47;;;;;;;17.10;16.10;;;19.70;99.90;;;;;;5065576;28;20933;-69
2021/10/03 10:46:50;;;;;;;16.40;15.30;;;19.80;99.90;;;;;;5055269;28;20457;-69
2021/10/03 10:49:32;;;;;;;17.13;16.03;;;19.90;99.90;;;;;;5058363;28;20978;-72
2021/10/03 10:52:25;;;;;;;16.43;15.53;;;20.00;99.90;;;;;;5063179;28;20466;-71
2021/10/03 10:55:37;;;;;;;15.83;14.93;;;20.20;99.90;;;;;;5064508;28;20474;-72
2021/10/03 10:58:24;;;;;;;15.60;14.80;;;20.30;99.90;;;;;;5056870;28;20722;-70
2021/10/03 11:01:04;;;;;;;16.10;15.20;;;20.30;99.90;;;;;;5055168;28;20942;-70
2021/10/03 11:04:07;;;;;;;16.43;15.43;;;20.30;99.90;;;;;;5056801;28;20490;-71
2021/10/03 11:07:06;;;;;;;16.00;15.10;;;20.30;99.90;;;;;;5059397;28;20456;-69
2021/10/03 11:09:48;;;;;;;16.80;15.73;;;20.10;99.90;;;;;;5060376;28;20481;-69
2021/10/03 11:12:29;;;;;;;15.80;14.70;;;20.10;99.90;;;;;;5052168;28;20479;-70
2021/10/03 11:15:25;;;;;;;16.23;15.23;;;20.10;99.90;;;;;;5057439;28;20513;-69
2021/10/03 11:17:52;;;;;;;16.03;15.00;;;20.10;99.90;;;;;;5055386;28;20486;-70
2021/10/03 11:20:21;;;;;;;16.13;15.13;;;20.30;99.90;;;;;;5058741;28;20457;-69
2021/10/03 11:22:48;;;;;;;16.50;15.40;;;20.40;99.90;;;;;;5062987;28;20810;-70
2021/10/03 11:25:22;;;;;;;16.00;15.10;;;20.50;99.90;;;;;;5064039;28;20451;-70
2021/10/03 11:27:56;;;;;;;16.03;15.03;;;20.60;99.90;;;;;;5059560;28;20455;-69
2021/10/03 11:30:25;;;;;;;16.97;15.97;;;20.70;99.90;;;;;;5054798;28;20894;-69
2021/10/03 11:32:53;;;;;;;16.90;15.77;;;20.80;99.90;;;;;;5052677;28;20949;-69
2021/10/03 11:35:20;;;;;;;17.30;16.20;;;20.80;99.90;;;;;;5059005;28;20538;-70
2021/10/03 11:37:51;;;;;;;16.30;15.40;;;20.80;99.90;;;;;;5058327;28;20560;-72
2021/10/03 11:40:20;;;;;;;17.17;15.80;;;20.90;99.90;;;;;;5066913;28;20463;-69
2021/10/03 11:42:50;;;;;;;16.40;15.50;;;20.90;99.90;;;;;;5055396;28;20463;-69
2021/10/03 11:45:20;;;;;;;17.77;15.33;;;21.00;99.90;;;;;;5057492;28;20460;-69
2021/10/03 11:47:50;;;;;;;16.43;15.53;;;20.90;99.90;;;;;;5053444;28;20479;-69
2021/10/03 11:50:21;;;;;;;16.27;15.37;;;20.90;99.90;;;;;;5064148;28;20463;-69
2021/10/03 11:52:48;;;;;;;16.00;15.10;;;20.80;99.90;;;;;;5065752;28;20462;-70
2021/10/03 11:55:18;;;;;;;16.60;15.67;;;20.80;99.90;;;;;;5059405;28;20463;-69
2021/10/03 11:57:47;;;;;;;15.60;14.70;;;20.80;99.90;;;;;;5056738;28;20495;-69
2021/10/03 12:00:20;;;;;;;15.23;14.33;;;20.80;99.90;;;;;;5056985;28;20459;-70
2021/10/03 12:02:51;;;;;;;16.27;15.07;;;20.80;99.90;;;;;;5062325;28;20502;-70
2021/10/03 12:05:22;;;;;;;15.57;14.67;;;20.70;99.90;;;;;;5057051;28;20463;-70
2021/10/03 12:08:02;;;;;;;15.60;14.70;;;20.70;99.90;;;;;;5063300;28;22785;-70
2021/10/03 12:10:39;;;;;;;15.93;14.87;;;20.80;99.90;;;;;;5064864;28;20521;-70
2021/10/03 12:13:17;;;;;;;16.00;14.70;;;20.80;99.90;;;;;;5058301;28;20825;-72
2021/10/03 12:15:55;;;;;;;15.50;14.60;;;20.90;99.90;;;;;;5054978;28;20473;-70
2021/10/03 12:18:43;;;;;;;16.43;15.33;;;21.00;99.90;;;;;;5055655;28;20969;-70
2021/10/03 12:21:15;;;;;;;15.73;14.87;;;21.10;99.90;;;;;;5057251;28;20460;-71
2021/10/03 12:23:55;;;;;;;16.47;15.37;;;21.10;99.90;;;;;;5060022;28;20613;-70
2021/10/03 12:26:28;;;;;;;16.27;15.23;;;21.30;99.90;;;;;;5060020;28;20491;-71
2021/10/03 12:29:17;;;;;;;15.47;14.57;;;21.40;99.90;;;;;;5056295;28;20459;-70
2021/10/03 12:31:47;;;;;;;15.30;14.40;;;21.60;99.90;;;;;;5065923;28;20546;-72
2021/10/03 12:34:37;;;;;;;15.10;14.20;;;21.70;99.90;;;;;;5059837;28;20463;-72
2021/10/03 12:37:06;;;;;;;15.47;14.57;;;21.80;99.90;;;;;;5056166;28;20490;-69
2021/10/03 12:39:36;;;;;;;15.83;15.03;;;21.80;99.90;;;;;;5063532;28;20459;-71
2021/10/03 12:42:12;;;;;;;17.03;16.13;;;21.80;99.90;;;;;;5054282;28;20524;-71